createdAt,value
2022-10-20T00:20:49.667Z,90.37
2022-10-20T00:23:23.505Z,90.27
2022-10-20T00:26:13.181Z,90.85
2022-10-20T00:28:46.311Z,90.87
2022-10-20T00:31:19.374Z,90.64
2022-10-20T00:33:52.066Z,90.90
2022-10-20T00:36:24.870Z,91.01
2022-10-20T00:39:01.895Z,90.91
2022-10-20T00:41:34.482Z,91.08
2022-10-20T00:44:52.378Z,91.01
2022-10-20T00:47:40.698Z,91.19
2022-10-20T00:53:11.752Z,90.49
2022-10-20T00:55:48.995Z,90.61
2022-10-20T00:58:22.025Z,90.42
2022-10-20T01:00:57.722Z,90.05
2022-10-20T01:03:39.094Z,89.77
2022-10-20T01:06:13.577Z,89.91
2022-10-20T01:08:48.219Z,89.58
2022-10-20T01:11:47.717Z,89.48
2022-10-20T01:14:56.738Z,89.42
2022-10-20T01:18:05.963Z,88.88
2022-10-20T01:21:03.405Z,88.15
2022-10-20T01:27:49.564Z,88.05
2022-10-20T01:30:24.077Z,88.00
2022-10-20T01:33:04.557Z,88.20
2022-10-20T01:35:45.350Z,88.21
2022-10-20T01:38:26.221Z,88.50
2022-10-20T01:41:24.667Z,88.23
2022-10-20T01:43:57.424Z,88.47
2022-10-20T01:46:30.379Z,88.50
2022-10-20T01:49:04.330Z,88.32
2022-10-20T01:51:37.367Z,88.31
2022-10-20T01:54:28.684Z,87.78
2022-10-20T01:57:32.922Z,87.68
2022-10-20T02:00:16.225Z,87.79
2022-10-20T02:03:08.973Z,86.85
2022-10-20T02:06:20.987Z,86.79
2022-10-20T02:08:57.264Z,86.95
2022-10-20T02:11:35.174Z,86.75
2022-10-20T02:14:12.073Z,86.66
2022-10-20T02:16:48.848Z,86.25
2022-10-20T02:19:23.762Z,86.26
2022-10-20T02:21:56.481Z,84.34
2022-10-20T02:24:33.174Z,85.84
2022-10-20T02:27:11.470Z,85.38
2022-10-20T02:29:56.848Z,85.25
2022-10-20T02:32:30.293Z,84.58
2022-10-20T02:35:06.908Z,84.79
2022-10-20T02:37:41.168Z,85.29
2022-10-20T02:40:14.759Z,85.33
2022-10-20T02:42:47.542Z,85.23
2022-10-20T02:45:20.370Z,85.42
2022-10-20T02:47:53.154Z,85.41
2022-10-20T02:50:26.039Z,85.34
2022-10-20T02:52:58.925Z,85.48
2022-10-20T02:55:31.726Z,85.17
2022-10-20T02:58:04.404Z,85.64
2022-10-20T03:00:37.199Z,85.79
2022-10-20T03:03:10.128Z,85.87
2022-10-20T03:05:46.174Z,85.96
2022-10-20T03:08:19.640Z,86.07
2022-10-20T03:10:53.112Z,85.85
2022-10-20T03:13:25.847Z,86.11
2022-10-20T03:15:58.654Z,86.27
2022-10-20T03:18:31.461Z,86.27
2022-10-20T03:21:04.042Z,85.84
2022-10-20T03:23:37.709Z,85.76
2022-10-20T03:26:12.007Z,86.37
2022-10-20T03:28:45.895Z,86.73
2022-10-20T03:31:18.734Z,86.99
2022-10-20T03:33:51.344Z,87.10
2022-10-20T03:36:24.563Z,86.99
2022-10-20T03:38:58.242Z,86.62
2022-10-20T03:41:32.730Z,87.07
2022-10-20T03:44:06.875Z,87.03
2022-10-20T03:46:39.670Z,86.86
2022-10-20T03:49:13.367Z,87.10
2022-10-20T03:51:46.414Z,87.18
2022-10-20T03:54:19.581Z,86.35
2022-10-20T03:56:52.658Z,86.97
2022-10-20T03:59:28.041Z,86.89
2022-10-20T04:01:59.196Z,86.82
2022-10-20T04:04:33.601Z,86.23
2022-10-20T04:07:07.181Z,86.45
2022-10-20T04:09:40.744Z,86.64
2022-10-20T04:12:15.626Z,87.21
2022-10-20T04:14:49.094Z,86.51
2022-10-20T04:20:09.915Z,87.30
2022-10-20T04:22:43.790Z,87.62
2022-10-20T04:25:18.315Z,88.22
2022-10-20T04:27:51.986Z,88.04
2022-10-20T04:30:24.966Z,88.07
2022-10-20T04:32:58.317Z,88.08
2022-10-20T04:35:32.062Z,87.81
2022-10-20T04:38:04.716Z,87.29
2022-10-20T04:40:37.528Z,87.98
2022-10-20T04:43:11.578Z,88.01
2022-10-20T04:45:45.372Z,87.73
2022-10-20T04:48:19.283Z,87.95
2022-10-20T04:51:26.296Z,88.14
2022-10-20T04:54:00.135Z,88.39
2022-10-20T04:56:33.102Z,88.24
2022-10-20T04:59:09.492Z,89.38
2022-10-20T05:01:41.199Z,89.08
2022-10-20T05:04:14.197Z,88.72
2022-10-20T05:06:47.344Z,88.30
2022-10-20T05:09:20.846Z,87.70
2022-10-20T05:11:55.417Z,87.76
2022-10-20T05:14:28.846Z,87.52
2022-10-20T05:17:04.212Z,87.17
2022-10-20T05:19:37.441Z,87.01
2022-10-20T05:22:10.884Z,86.84
2022-10-20T05:24:45.425Z,87.60
2022-10-20T05:27:18.554Z,86.83
2022-10-20T05:29:52.832Z,86.50
2022-10-20T05:32:26.116Z,86.13
2022-10-20T05:34:59.186Z,86.24
2022-10-20T05:37:32.163Z,85.97
2022-10-20T05:40:06.936Z,86.35
2022-10-20T05:42:40.170Z,87.13
2022-10-20T05:45:13.564Z,86.88
2022-10-20T05:47:47.981Z,87.00
2022-10-20T05:50:22.175Z,87.80
2022-10-20T05:52:55.655Z,87.87
2022-10-20T05:55:28.598Z,88.41
2022-10-20T05:58:02.633Z,88.93
2022-10-20T06:00:38.199Z,89.06
2022-10-20T06:03:10.543Z,89.21
2022-10-20T06:05:43.626Z,89.53
2022-10-20T06:08:17.781Z,89.92
2022-10-20T06:10:52.180Z,90.46
2022-10-20T06:13:27.260Z,90.19
2022-10-20T06:16:10.052Z,90.56
2022-10-20T06:18:46.934Z,91.02
2022-10-20T06:21:28.432Z,90.92
2022-10-20T06:24:23.703Z,91.42
2022-10-20T06:26:58.907Z,90.96
2022-10-20T06:29:31.933Z,91.51
2022-10-20T06:32:05.127Z,91.50
2022-10-20T06:34:39.099Z,91.30
2022-10-20T06:37:12.707Z,91.28
2022-10-20T06:39:45.568Z,92.01
2022-10-20T06:42:18.385Z,91.48
2022-10-20T06:44:51.692Z,91.35
2022-10-20T06:47:24.628Z,91.35
2022-10-20T06:49:57.710Z,91.28
2022-10-20T06:52:30.493Z,90.82
2022-10-20T06:55:03.217Z,90.73
2022-10-20T06:57:35.898Z,91.04
2022-10-20T07:00:10.444Z,90.78
2022-10-20T07:02:43.825Z,89.77
2022-10-20T07:05:17.774Z,90.23
2022-10-20T07:07:55.274Z,90.71
2022-10-20T07:10:45.599Z,90.77
2022-10-20T07:13:40.287Z,91.00
2022-10-20T07:16:18.689Z,90.33
2022-10-20T07:18:51.907Z,90.82
2022-10-20T07:21:32.366Z,90.87
2022-10-20T07:24:03.013Z,91.04
2022-10-20T07:26:39.165Z,91.33
2022-10-20T07:29:12.412Z,91.19
2022-10-20T07:31:47.696Z,91.35
2022-10-20T07:34:27.498Z,91.54
2022-10-20T07:36:57.266Z,91.52
2022-10-20T07:39:30.575Z,91.03
2022-10-20T07:42:03.322Z,91.28
2022-10-20T07:44:37.999Z,91.38
2022-10-20T07:47:10.983Z,91.39
2022-10-20T07:49:45.132Z,91.51
2022-10-20T07:52:18.719Z,91.40
2022-10-20T07:54:58.007Z,91.48
2022-10-20T07:57:25.485Z,91.29
2022-10-20T07:59:57.941Z,91.53
2022-10-20T08:02:30.517Z,90.61
2022-10-20T08:05:03.966Z,91.26
2022-10-20T08:07:36.546Z,91.41
2022-10-20T08:10:10.956Z,91.47
2022-10-20T08:12:43.935Z,91.18
2022-10-20T08:15:24.678Z,90.27
2022-10-20T08:18:08.179Z,90.80
2022-10-20T08:20:41.352Z,90.87
2022-10-20T08:23:16.156Z,90.59
2022-10-20T08:25:49.010Z,90.37
2022-10-20T08:28:24.723Z,90.51
2022-10-20T08:30:56.423Z,90.49
2022-10-20T08:33:29.763Z,91.37
2022-10-20T08:36:10.564Z,91.26
2022-10-20T08:38:44.749Z,91.85
2022-10-20T08:41:24.956Z,92.04
2022-10-20T08:43:58.832Z,92.04
2022-10-20T08:46:38.624Z,91.78
2022-10-20T08:49:18.506Z,92.28
2022-10-20T08:51:51.200Z,92.11
2022-10-20T08:54:24.631Z,92.22
2022-10-20T08:56:57.320Z,92.40
2022-10-20T08:59:39.564Z,92.20
2022-10-20T09:02:17.598Z,91.96
2022-10-20T09:05:02.285Z,91.71
2022-10-20T09:07:38.440Z,91.87
2022-10-20T09:10:48.355Z,92.00
2022-10-20T09:13:31.117Z,92.04
2022-10-20T09:16:18.277Z,91.81
2022-10-20T09:18:45.499Z,91.61
2022-10-20T09:21:25.194Z,91.39
2022-10-20T09:24:05.391Z,90.97
2022-10-20T09:26:57.954Z,91.15
2022-10-20T09:29:26.171Z,91.54
2022-10-20T09:32:04.570Z,91.69
2022-10-20T09:34:43.118Z,91.58
2022-10-20T09:37:19.673Z,91.27
2022-10-20T09:39:56.110Z,91.05
2022-10-20T09:42:39.128Z,91.20
2022-10-20T09:45:24.145Z,91.07
2022-10-20T09:48:06.897Z,91.77
2022-10-20T09:50:41.269Z,91.61
2022-10-20T09:53:18.701Z,91.35
2022-10-20T09:55:52.050Z,91.34
2022-10-20T09:58:35.178Z,91.48
2022-10-20T10:01:14.895Z,92.05
2022-10-20T10:03:52.018Z,91.35
2022-10-20T10:06:43.279Z,91.04
2022-10-20T10:09:39.038Z,91.01
2022-10-20T10:12:18.445Z,90.81
2022-10-20T10:15:19.480Z,90.38
2022-10-20T10:17:52.774Z,90.12
2022-10-20T10:20:32.724Z,89.65
2022-10-20T10:23:26.301Z,88.55
2022-10-20T10:26:02.062Z,87.63
2022-10-20T10:28:40.065Z,86.59
2022-10-20T10:31:25.332Z,86.28
2022-10-20T10:34:21.045Z,86.08
2022-10-20T10:36:55.843Z,85.31
2022-10-20T10:39:29.238Z,83.00
2022-10-20T10:42:39.892Z,83.16
2022-10-20T10:45:36.062Z,82.00
2022-10-20T10:48:22.609Z,79.74
2022-10-20T10:51:13.252Z,78.42
2022-10-20T10:54:11.828Z,77.64
2022-10-20T10:56:54.584Z,78.69
2022-10-20T10:59:36.979Z,79.33
2022-10-20T11:02:52.223Z,80.58
2022-10-20T11:05:41.322Z,81.65
2022-10-20T11:08:34.296Z,82.21
2022-10-20T11:11:44.782Z,83.26
2022-10-20T11:14:41.091Z,83.55
2022-10-20T11:17:39.295Z,84.59
2022-10-20T11:20:44.323Z,84.78
2022-10-20T11:23:47.163Z,85.39
2022-10-20T11:26:40.017Z,85.70
2022-10-20T11:29:32.293Z,86.32
2022-10-20T11:32:27.610Z,86.31
2022-10-20T11:35:38.570Z,86.19
2022-10-20T11:38:45.923Z,87.23
2022-10-20T11:44:26.931Z,87.85
2022-10-20T11:47:09.081Z,88.72
2022-10-20T11:49:41.994Z,89.24
2022-10-20T11:52:49.609Z,89.81
2022-10-20T11:56:03.126Z,89.83
2022-10-20T11:59:07.755Z,90.27
2022-10-20T12:02:15.763Z,90.69
2022-10-20T12:05:27.000Z,90.84
2022-10-20T12:08:29.935Z,91.48
2022-10-20T12:11:03.037Z,91.11
2022-10-20T12:14:06.829Z,91.31
2022-10-20T12:17:16.701Z,91.09
2022-10-20T12:19:51.860Z,90.85
2022-10-20T12:22:40.072Z,90.88
2022-10-20T12:25:19.333Z,90.99
2022-10-20T12:28:22.893Z,90.63
2022-10-20T12:31:02.632Z,90.53
2022-10-20T12:33:53.493Z,90.57
2022-10-20T12:36:34.745Z,90.30
2022-10-20T12:39:24.489Z,90.39
2022-10-20T12:42:01.116Z,90.68
2022-10-20T12:44:55.498Z,90.44
2022-10-20T12:47:51.331Z,90.69
2022-10-20T12:50:42.130Z,89.97
2022-10-20T12:53:48.695Z,89.97
2022-10-20T12:56:22.552Z,90.09
2022-10-20T12:59:24.948Z,89.20
2022-10-20T13:02:20.566Z,88.87
2022-10-20T17:36:30.360Z,84.13
2022-10-20T17:39:14.589Z,84.48
2022-10-20T17:41:50.835Z,84.58
2022-10-20T17:44:40.843Z,84.96
2022-10-20T17:47:22.531Z,85.47
2022-10-20T17:52:48.199Z,86.50
2022-10-20T17:55:31.734Z,87.02
2022-10-20T17:58:08.514Z,87.33
2022-10-20T18:00:56.541Z,87.74
2022-10-20T18:03:31.865Z,88.27
2022-10-20T18:06:24.372Z,88.26
2022-10-20T18:11:59.335Z,88.76
2022-10-20T18:14:35.182Z,89.26
2022-10-20T18:17:14.933Z,89.54
2022-10-20T18:19:56.296Z,89.98
2022-10-20T18:22:47.631Z,90.39
2022-10-20T18:25:28.019Z,90.53
2022-10-20T18:28:08.384Z,90.66
2022-10-20T18:30:48.468Z,90.32
2022-10-20T18:33:26.168Z,90.42
2022-10-20T18:39:02.006Z,90.36
2022-10-20T18:41:42.579Z,89.91
2022-10-20T18:44:19.687Z,89.58
2022-10-20T18:46:58.862Z,89.27
2022-10-20T18:49:35.306Z,89.01
2022-10-20T18:52:10.299Z,88.77
2022-10-20T18:54:47.862Z,88.91
2022-10-20T18:57:30.214Z,88.78
2022-10-20T19:00:07.392Z,88.70
2022-10-20T19:02:49.903Z,88.49
2022-10-20T19:05:35.975Z,88.52
2022-10-20T19:08:10.276Z,88.70
2022-10-20T19:10:55.751Z,88.81
2022-10-20T19:13:38.692Z,88.66
2022-10-20T19:16:16.378Z,88.71
2022-10-20T19:18:54.214Z,88.70
2022-10-20T19:21:30.893Z,88.37
2022-10-20T19:24:17.193Z,88.41
2022-10-20T19:27:28.281Z,88.39
2022-10-20T19:29:54.859Z,88.33
2022-10-20T19:32:28.464Z,88.29
2022-10-20T19:35:01.564Z,88.32
2022-10-20T19:37:39.744Z,88.36
2022-10-20T19:40:15.186Z,87.90
2022-10-20T19:42:50.023Z,87.61
2022-10-20T19:45:24.444Z,87.50
2022-10-20T19:47:59.785Z,87.30
2022-10-20T19:50:34.005Z,87.22
2022-10-20T19:53:08.767Z,87.37
2022-10-20T19:55:41.660Z,87.35
2022-10-20T19:58:14.035Z,87.47
2022-10-20T20:00:50.116Z,87.73
2022-10-20T20:03:23.845Z,87.86
2022-10-20T20:06:09.409Z,87.80
2022-10-20T20:08:49.355Z,87.93
2022-10-20T20:11:27.472Z,88.24
2022-10-20T20:14:03.159Z,88.37
2022-10-20T20:16:36.533Z,88.08
2022-10-20T20:19:09.486Z,87.69
2022-10-20T20:21:41.971Z,87.71
2022-10-20T20:24:15.026Z,87.33
2022-10-20T20:26:49.001Z,87.22
2022-10-20T20:29:21.471Z,86.92
2022-10-20T20:31:54.149Z,86.85
2022-10-20T20:34:27.075Z,86.61
2022-10-20T20:36:59.719Z,86.49
2022-10-20T20:39:32.975Z,86.38
2022-10-20T20:42:06.148Z,86.36
2022-10-20T20:44:39.008Z,86.28
2022-10-20T20:47:12.832Z,86.42
2022-10-20T20:49:46.264Z,86.56
2022-10-20T20:52:18.650Z,86.63
2022-10-20T20:54:52.221Z,86.53
2022-10-20T20:57:24.866Z,86.60
2022-10-20T20:59:57.381Z,86.43
2022-10-20T21:02:29.917Z,86.36
2022-10-20T21:05:02.995Z,85.97
2022-10-20T21:07:36.482Z,86.10
2022-10-20T21:10:10.147Z,86.16
2022-10-20T21:12:43.951Z,86.04
2022-10-20T21:15:16.645Z,86.02
2022-10-20T21:17:49.724Z,86.07
2022-10-20T21:20:23.212Z,85.95
2022-10-20T21:22:55.604Z,85.81
2022-10-20T21:25:28.422Z,85.56
2022-10-20T21:28:01.125Z,85.63
2022-10-20T21:30:34.446Z,85.70
2022-10-20T21:33:06.823Z,85.57
2022-10-20T21:35:39.257Z,85.60
2022-10-20T21:38:11.738Z,85.74
2022-10-20T21:40:44.981Z,86.16
2022-10-20T21:43:17.377Z,86.29
2022-10-20T21:45:50.451Z,86.35
2022-10-20T21:48:22.922Z,86.62
2022-10-20T21:50:55.476Z,86.93
2022-10-20T21:53:27.986Z,87.12
2022-10-20T21:56:02.761Z,87.64
2022-10-20T21:58:37.915Z,87.69
2022-10-20T22:01:19.571Z,87.65
2022-10-20T22:03:55.181Z,87.67
2022-10-20T22:06:29.472Z,87.90
2022-10-20T22:09:02.589Z,88.26
2022-10-20T22:11:45.488Z,88.83
2022-10-20T22:14:18.496Z,89.02
2022-10-20T22:16:51.164Z,89.07
2022-10-20T22:19:25.903Z,89.08
2022-10-20T22:21:59.878Z,89.04
2022-10-20T22:24:34.646Z,89.19
2022-10-20T22:27:15.515Z,89.55
2022-10-20T22:29:41.744Z,89.85
2022-10-20T22:32:15.514Z,90.04
2022-10-20T22:34:48.062Z,90.30
2022-10-20T22:37:20.528Z,90.76
2022-10-20T22:39:53.061Z,90.84
2022-10-20T22:42:28.135Z,90.93
2022-10-20T22:45:00.560Z,90.89
2022-10-20T22:47:33.253Z,91.18
2022-10-20T22:50:06.118Z,91.58
2022-10-20T22:52:40.228Z,91.79
2022-10-20T22:55:14.648Z,91.99
2022-10-20T22:57:51.158Z,92.28
2022-10-20T23:00:23.647Z,92.29
2022-10-20T23:02:56.937Z,92.35
2022-10-20T23:05:29.703Z,92.60
2022-10-20T23:08:03.367Z,92.96
2022-10-20T23:10:36.138Z,93.04
2022-10-20T23:13:09.032Z,93.37
2022-10-20T23:15:41.652Z,93.76
2022-10-20T23:18:17.091Z,94.35
2022-10-20T23:20:52.763Z,94.47
2022-10-20T23:23:26.271Z,94.54
2022-10-20T23:26:02.296Z,94.70
2022-10-20T23:28:35.476Z,94.79
2022-10-20T23:31:10.667Z,94.84
2022-10-20T23:33:44.410Z,95.24
2022-10-20T23:36:17.226Z,95.30
2022-10-20T23:38:51.434Z,95.72
2022-10-20T23:41:25.302Z,95.50
2022-10-20T23:43:59.964Z,95.43
2022-10-20T23:46:33.807Z,95.50
2022-10-20T23:49:06.600Z,95.61
2022-10-20T23:51:39.576Z,95.70
2022-10-20T23:54:12.054Z,95.46
2022-10-20T23:56:44.463Z,95.52
2022-10-20T23:59:18.159Z,95.67
